Time;durP1;ratioP1;P1;durP2;ratioP2;P2;SDS_P1;SDS_P2;PMS_P1;PMS_P2;Temp;Humidity;BMP_temperature;BMP_pressure;BME280_temperature;BME280_humidity;BME280_pressure;Samples;Min_cycle;Max_cycle;Signal;HPM_P1;HPM_P2
2023/08/15 00:00:12;;;;;;;23.70;9.80;;;;;;;27.97;48.35;99261.05;135555;1280;24248;-63
2023/08/15 00:03:35;;;;;;;;;;;;;;;28.00;47.96;99264.52;135546;1279;22491;-66
2023/08/15 00:06:37;;;;;;;24.30;10.70;;;;;;;27.95;47.98;99269.81;135553;1260;22640;-67
2023/08/15 00:09:39;;;;;;;27.80;11.00;;;;;;;27.97;47.86;99267.80;135517;1279;22640;-63
2023/08/15 00:12:42;;;;;;;23.50;10.70;;;;;;;27.99;47.91;99268.02;135556;1279;22540;-65
2023/08/15 00:15:44;;;;;;;26.70;13.00;;;;;;;28.08;47.93;99270.91;135539;1279;22526;-63
2023/08/15 00:18:47;;;;;;;24.00;12.20;;;;;;;27.95;48.40;99273.55;135567;1279;25364;-63
2023/08/15 00:21:49;;;;;;;29.20;11.80;;;;;;;28.10;48.11;99265.25;135520;1264;24255;-60
2023/08/15 00:24:51;;;;;;;27.30;11.50;;;;;;;28.18;48.24;99257.02;135513;1256;22547;-63
2023/08/15 00:27:54;;;;;;;26.10;12.40;;;;;;;28.25;48.36;99258.27;135523;1280;25907;-62
2023/08/15 00:30:56;;;;;;;25.10;12.10;;;;;;;28.37;47.92;99254.19;135546;1279;22537;-63
2023/08/15 00:33:58;;;;;;;27.80;12.30;;;;;;;28.44;47.49;99255.30;135558;1264;22553;-67
2023/08/15 00:37:01;;;;;;;27.80;13.00;;;;;;;28.35;47.86;99251.02;135517;1280;22547;-66
2023/08/15 00:40:04;;;;;;;28.60;13.20;;;;;;;28.22;48.06;99254.55;135543;1280;22552;-63
2023/08/15 00:43:07;;;;;;;27.50;12.90;;;;;;;28.17;47.98;99255.67;135560;1280;25559;-63
2023/08/15 00:46:09;;;;;;;28.80;13.50;;;;;;;28.04;48.24;99257.91;135550;1279;22543;-63
2023/08/15 00:49:11;;;;;;;22.80;9.90;;;;;;;28.02;48.05;99251.14;135497;1280;22534;-61
2023/08/15 00:52:14;;;;;;;23.90;10.70;;;;;;;28.09;47.83;99251.69;135576;1279;25453;-64
2023/08/15 00:55:16;;;;;;;19.40;8.10;;;;;;;27.99;48.06;99250.77;135563;1280;22539;-62
2023/08/15 00:58:19;;;;;;;23.50;11.50;;;;;;;27.97;48.08;99254.27;135552;1280;22562;-65
2023/08/15 01:01:21;;;;;;;27.80;11.10;;;;;;;27.90;48.16;99251.19;135524;1280;22759;-62
2023/08/15 01:04:24;;;;;;;22.90;11.00;;;;;;;27.70;48.41;99244.11;135553;1280;22633;-60
2023/08/15 01:07:26;;;;;;;26.00;11.20;;;;;;;27.77;48.28;99242.02;135524;1280;22526;-62
2023/08/15 01:10:29;;;;;;;22.40;11.10;;;;;;;27.65;48.67;99240.53;135555;1280;25345;-63
2023/08/15 01:13:31;;;;;;;23.50;10.60;;;;;;;27.91;48.02;99235.95;135560;1279;22546;-60
2023/08/15 01:16:33;;;;;;;25.30;11.50;;;;;;;27.62;48.64;99236.08;135529;1264;22545;-63
2023/08/15 01:19:36;;;;;;;24.40;8.20;;;;;;;27.54;48.86;99232.34;135555;1280;22608;-64
2023/08/15 01:22:39;;;;;;;20.30;8.60;;;;;;;27.42;49.32;99232.96;135528;1280;22531;-61
2023/08/15 01:25:41;;;;;;;18.60;7.80;;;;;;;27.33;49.34;99234.69;135552;1280;23746;-59
2023/08/15 01:28:44;;;;;;;19.70;8.80;;;;;;;27.53;48.74;99232.98;135532;1279;22541;-64
2023/08/15 01:31:46;;;;;;;21.10;8.50;;;;;;;27.34;49.34;99230.56;135495;1277;25447;-62
2023/08/15 01:34:48;;;;;;;20.60;9.60;;;;;;;27.24;49.60;99229.86;135504;1280;22661;-64
2023/08/15 01:37:51;;;;;;;23.20;9.80;;;;;;;27.14;50.12;99234.61;135467;1280;22540;-60
2023/08/15 01:40:53;;;;;;;23.40;11.20;;;;;;;27.18;50.32;99236.64;135464;1280;22995;-60
2023/08/15 01:43:55;;;;;;;23.50;11.50;;;;;;;27.21;50.70;99232.89;135500;1256;24215;-61
2023/08/15 01:46:58;;;;;;;22.10;10.40;;;;;;;27.26;50.63;99232.41;135547;1280;22528;-60
2023/08/15 01:50:00;;;;;;;23.30;11.50;;;;;;;27.32;50.49;99232.80;135504;1280;22579;-64
2023/08/15 01:53:03;;;;;;;19.90;9.00;;;;;;;27.47;50.29;99231.27;135518;1280;24222;-65
2023/08/15 01:56:05;;;;;;;25.30;11.30;;;;;;;27.60;49.61;99231.59;135515;1280;22598;-62
2023/08/15 01:59:08;;;;;;;24.50;12.40;;;;;;;27.61;50.49;99231.52;135528;1280;22543;-65
2023/08/15 02:02:10;;;;;;;21.90;9.40;;;;;;;27.44;50.18;99232.48;135515;1279;24220;-63
2023/08/15 02:05:13;;;;;;;22.10;9.90;;;;;;;27.27;50.90;99233.92;135490;1280;24236;-65
2023/08/15 02:08:16;;;;;;;18.70;7.60;;;;;;;27.24;50.79;99233.92;135500;1270;22537;-64
2023/08/15 02:11:18;;;;;;;19.40;7.50;;;;;;;27.16;50.61;99236.90;135508;1280;22538;-65
2023/08/15 02:14:20;;;;;;;18.70;7.40;;;;;;;27.18;50.75;99234.65;135513;1280;22666;-62
2023/08/15 02:17:23;;;;;;;18.80;7.90;;;;;;;27.33;50.85;99236.39;135480;1280;22576;-62
2023/08/15 02:20:25;;;;;;;21.60;9.90;;;;;;;27.32;50.70;99234.34;135513;1280;22544;-64
2023/08/15 02:23:28;;;;;;;71.60;9.80;;;;;;;27.17;51.09;99235.27;135502;1279;22606;-65
2023/08/15 02:26:30;;;;;;;22.40;9.00;;;;;;;27.38;50.37;99232.80;135489;1279;22635;-64
2023/08/15 02:29:32;;;;;;;23.00;10.90;;;;;;;27.63;49.56;99236.67;135543;1280;23132;-62
2023/08/15 02:32:35;;;;;;;27.60;11.10;;;;;;;27.62;49.61;99240.57;135466;1280;22990;-62
2023/08/15 02:35:38;;;;;;;28.00;12.90;;;;;;;27.63;49.86;99241.40;135502;1269;22525;-64
2023/08/15 02:38:40;;;;;;;22.60;10.60;;;;;;;27.59;49.64;99238.55;135541;1261;24209;-65
2023/08/15 02:41:43;;;;;;;24.90;12.20;;;;;;;27.69;49.53;99237.72;135501;1280;22544;-66
2023/08/15 02:44:45;;;;;;;27.20;12.70;;;;;;;27.63;49.49;99236.93;135458;1280;22551;-62
2023/08/15 02:47:48;;;;;;;26.40;13.50;;;;;;;27.50;49.46;99237.68;135550;1280;25295;-66
2023/08/15 02:50:50;;;;;;;29.80;12.50;;;;;;;27.47;49.53;99236.33;135484;1279;22534;-62
2023/08/15 02:53:52;;;;;;;26.80;12.30;;;;;;;27.34;49.85;99235.02;135473;1280;22533;-61
2023/08/15 02:56:55;;;;;;;23.70;10.60;;;;;;;27.42;49.58;99239.14;135527;1279;22533;-63
2023/08/15 02:59:57;;;;;;;23.90;10.70;;;;;;;27.35;49.61;99237.21;135506;1260;22673;-62
2023/08/15 03:03:00;;;;;;;25.10;11.70;;;;;;;27.06;50.58;99236.68;135440;1260;22570;-63
2023/08/15 03:06:02;;;;;;;23.80;11.00;;;;;;;26.90;50.84;99237.95;135510;1280;25343;-63
2023/08/15 03:09:05;;;;;;;23.10;11.10;;;;;;;27.08;50.36;99239.30;135428;1256;24382;-62
2023/08/15 03:12:08;;;;;;;22.90;10.80;;;;;;;27.23;49.93;99237.23;135482;1279;22557;-64
2023/08/15 03:15:10;;;;;;;22.10;11.00;;;;;;;27.25;49.85;99236.67;135493;1280;22987;-65
2023/08/15 03:18:13;;;;;;;22.70;10.40;;;;;;;27.37;49.46;99239.30;135513;1280;22544;-64
2023/08/15 03:21:15;;;;;;;22.40;11.20;;;;;;;27.33;49.66;99238.75;135417;1280;22551;-61
2023/08/15 03:24:17;;;;;;;23.80;10.80;;;;;;;27.39;49.37;99239.80;135461;1276;22567;-63
2023/08/15 03:27:20;;;;;;;23.60;10.80;;;;;;;27.28;49.42;99237.23;135517;1280;22562;-63
2023/08/15 03:30:22;;;;;;;26.50;11.70;;;;;;;27.18;49.61;99236.51;135484;1279;22551;-60
2023/08/15 03:33:25;;;;;;;23.70;11.00;;;;;;;26.93;50.08;99236.52;135500;1279;22554;-62
2023/08/15 03:36:27;;;;;;;22.40;10.20;;;;;;;26.75;50.39;99239.60;135453;1261;22565;-61
2023/08/15 03:39:29;;;;;;;21.10;9.90;;;;;;;26.87;50.19;99243.22;135458;1280;22605;-64
2023/08/15 03:42:32;;;;;;;25.60;12.00;;;;;;;26.78;50.56;99241.17;135496;1280;22530;-62
2023/08/15 03:45:34;;;;;;;22.20;10.30;;;;;;;26.58;51.12;99239.19;135482;1280;22556;-61
2023/08/15 03:48:37;;;;;;;23.70;10.90;;;;;;;26.66;51.25;99245.04;135462;1280;22569;-62
2023/08/15 03:51:39;;;;;;;23.70;11.30;;;;;;;26.76;51.04;99243.79;135443;1280;22593;-61
2023/08/15 03:54:41;;;;;;;25.40;11.40;;;;;;;26.79;51.16;99251.61;135443;1280;22548;-63
2023/08/15 03:57:44;;;;;;;24.70;11.90;;;;;;;27.14;50.49;99249.92;135476;1272;22560;-61
2023/08/15 04:00:46;;;;;;;21.60;11.20;;;;;;;27.11;50.84;99250.94;135445;1260;22570;-62
2023/08/15 04:03:49;;;;;;;20.70;9.30;;;;;;;27.22;50.67;99248.32;135431;1280;22611;-62
2023/08/15 04:06:51;;;;;;;21.30;9.30;;;;;;;27.47;50.19;99246.23;135455;1280;22566;-66
2023/08/15 04:09:53;;;;;;;22.10;10.50;;;;;;;27.53;50.31;99249.85;135458;1279;22770;-63
2023/08/15 04:12:56;;;;;;;25.40;11.50;;;;;;;27.55;50.43;99251.48;135457;1280;24565;-64
2023/08/15 04:15:58;;;;;;;23.20;11.00;;;;;;;27.76;50.21;99250.75;135402;1280;22562;-64
2023/08/15 04:19:00;;;;;;;25.20;10.10;;;;;;;27.71;50.38;99258.42;135493;1280;22537;-66
2023/08/15 04:22:03;;;;;;;25.30;11.90;;;;;;;27.70;50.90;99258.58;135524;1280;25383;-62
2023/08/15 04:25:06;;;;;;;24.10;11.50;;;;;;;27.68;51.17;99259.85;135479;1280;22608;-62
2023/08/15 04:28:08;;;;;;;22.60;10.40;;;;;;;27.80;51.05;99261.31;135515;1280;22535;-62
2023/08/15 04:31:11;;;;;;;23.60;11.90;;;;;;;28.22;50.52;99266.50;135489;1279;22540;-65
2023/08/15 04:34:13;;;;;;;24.50;12.80;;;;;;;28.59;50.23;99266.05;135497;1279;25396;-62
2023/08/15 04:37:16;;;;;;;25.70;12.20;;;;;;;28.59;51.14;99269.77;135523;1280;22562;-61
2023/08/15 04:40:18;;;;;;;25.40;12.60;;;;;;;28.86;50.79;99267.33;135499;1280;22565;-62
2023/08/15 04:43:20;;;;;;;24.70;12.30;;;;;;;28.97;50.97;99267.96;135518;1280;22556;-65
2023/08/15 04:46:23;;;;;;;26.20;11.80;;;;;;;29.46;50.29;99271.48;135475;1279;22535;-63
2023/08/15 04:49:25;;;;;;;28.30;13.40;;;;;;;29.69;50.09;99274.20;135502;1278;22536;-64
2023/08/15 04:52:28;;;;;;;24.20;11.60;;;;;;;29.83;50.14;99274.59;135517;1279;22540;-62
2023/08/15 04:55:31;;;;;;;24.00;11.90;;;;;;;30.09;50.06;99277.59;135495;1280;22573;-62
2023/08/15 04:58:33;;;;;;;24.50;12.30;;;;;;;30.34;49.64;99279.96;135468;1279;22539;-63
2023/08/15 05:01:35;;;;;;;26.90;12.60;;;;;;;30.28;50.23;99278.77;135545;1279;22523;-62
2023/08/15 05:04:38;;;;;;;24.10;12.00;;;;;;;30.55;49.50;99276.31;135490;1280;22620;-61
2023/08/15 05:07:40;;;;;;;24.50;11.70;;;;;;;30.90;48.85;99274.80;135474;1279;22547;-64
2023/08/15 05:10:43;;;;;;;23.60;11.40;;;;;;;30.84;49.35;99277.83;135491;1280;22541;-66
2023/08/15 05:13:45;;;;;;;22.00;10.70;;;;;;;31.14;49.02;99276.41;135516;1280;24386;-60
2023/08/15 05:16:47;;;;;;;23.50;11.20;;;;;;;31.28;48.77;99274.71;135502;1272;22534;-62
2023/08/15 05:19:50;;;;;;;23.10;11.50;;;;;;;31.36;48.65;99272.79;135476;1272;22533;-62
2023/08/15 05:22:53;;;;;;;24.40;11.50;;;;;;;31.73;48.37;99274.72;135488;1276;22525;-65
2023/08/15 05:25:55;;;;;;;24.20;11.50;;;;;;;31.93;48.32;99277.11;135491;1280;22533;-63
2023/08/15 05:28:57;;;;;;;24.10;11.20;;;;;;;32.03;47.86;99277.96;135518;1280;22582;-62
2023/08/15 05:32:00;;;;;;;27.10;10.40;;;;;;;32.03;48.07;99277.14;135522;1280;22535;-65
2023/08/15 05:35:02;;;;;;;22.20;10.70;;;;;;;32.41;47.55;99278.71;135504;1280;22535;-63
2023/08/15 05:38:05;;;;;;;25.50;10.40;;;;;;;32.62;47.34;99276.39;135477;1280;22548;-62
2023/08/15 05:41:07;;;;;;;25.20;11.50;;;;;;;32.70;47.35;99278.21;135536;1280;25382;-62
2023/08/15 05:44:10;;;;;;;20.80;9.70;;;;;;;32.94;47.10;99277.10;135494;1279;22540;-61
2023/08/15 05:47:12;;;;;;;25.70;10.70;;;;;;;32.84;47.02;99276.73;135523;1280;22540;-63
2023/08/15 05:50:14;;;;;;;20.30;10.00;;;;;;;33.20;46.30;99277.43;135467;1260;22537;-60
2023/08/15 05:53:17;;;;;;;24.00;10.50;;;;;;;33.37;45.95;99272.86;135496;1260;22536;-61
2023/08/15 05:56:19;;;;;;;24.30;11.00;;;;;;;33.54;46.28;99270.08;135543;1280;22522;-63
2023/08/15 05:59:22;;;;;;;22.80;10.20;;;;;;;33.60;46.20;99272.73;135470;1272;22569;-62
2023/08/15 06:02:24;;;;;;;21.10;9.20;;;;;;;33.63;46.44;99274.86;135478;1276;22538;-61
2023/08/15 06:05:27;;;;;;;25.80;10.00;;;;;;;33.80;45.93;99276.95;135504;1272;25379;-61
2023/08/15 06:08:29;;;;;;;21.80;9.40;;;;;;;33.85;45.72;99274.68;135486;1276;22558;-62
2023/08/15 06:11:32;;;;;;;25.30;9.70;;;;;;;33.93;45.61;99279.05;135494;1272;22565;-62
2023/08/15 06:14:34;;;;;;;24.90;9.80;;;;;;;33.98;45.74;99280.98;135526;1272;22539;-59
2023/08/15 06:17:37;;;;;;;24.10;9.80;;;;;;;34.20;45.49;99280.17;135485;1272;22551;-59
2023/08/15 06:20:39;;;;;;;23.00;9.60;;;;;;;34.37;45.26;99285.45;135501;1268;22506;-61
2023/08/15 06:23:41;;;;;;;21.80;10.40;;;;;;;34.62;44.81;99289.49;135467;1261;22584;-62
2023/08/15 06:26:44;;;;;;;23.70;9.70;;;;;;;34.89;44.53;99295.44;135515;1273;23143;-64
2023/08/15 06:29:46;;;;;;;25.60;10.10;;;;;;;35.00;43.91;99296.91;135495;1280;22557;-63
2023/08/15 06:32:48;;;;;;;22.20;10.20;;;;;;;35.15;43.55;99293.72;135535;1279;22552;-59
2023/08/15 06:35:51;;;;;;;22.70;9.70;;;;;;;35.46;43.06;99294.62;135540;1279;22550;-65
2023/08/15 06:38:53;;;;;;;23.80;9.10;;;;;;;35.65;42.93;99295.39;135556;1280;22549;-60
2023/08/15 06:41:56;;;;;;;24.50;9.30;;;;;;;35.73;42.37;99292.77;135552;1279;22524;-60
2023/08/15 06:44:58;;;;;;;23.30;9.20;;;;;;;36.20;42.17;99293.06;135554;1279;22525;-63
2023/08/15 06:48:02;;;;;;;23.40;9.40;;;;;;;36.32;41.81;99291.54;135547;1280;22563;-64
2023/08/15 06:51:05;;;;;;;20.70;8.80;;;;;;;36.60;41.17;99293.95;135524;1279;25413;-59
2023/08/15 06:54:07;;;;;;;22.90;8.90;;;;;;;36.90;40.66;99294.34;135518;1279;23329;-62
2023/08/15 06:57:10;;;;;;;21.30;8.70;;;;;;;36.86;40.87;99296.48;135537;1262;24233;-62
2023/08/15 07:00:13;;;;;;;21.90;8.50;;;;;;;37.20;39.97;99300.23;135558;1280;22536;-66
2023/08/15 07:03:15;;;;;;;22.10;8.50;;;;;;;37.47;39.62;99300.87;135530;1279;22544;-66
2023/08/15 07:06:18;;;;;;;19.00;8.50;;;;;;;37.17;40.26;99306.23;135533;1280;22536;-65
2023/08/15 07:09:20;;;;;;;20.60;8.70;;;;;;;37.20;40.23;99304.80;135514;1279;25234;-60
2023/08/15 07:12:22;;;;;;;21.10;8.50;;;;;;;37.41;39.74;99302.84;135540;1261;22546;-65
2023/08/15 07:15:25;;;;;;;21.40;7.80;;;;;;;37.66;39.42;99307.10;135537;1279;22579;-61
2023/08/15 07:18:27;;;;;;;22.10;7.90;;;;;;;37.89;39.17;99310.01;135564;1279;22542;-59
2023/08/15 07:21:30;;;;;;;24.30;8.10;;;;;;;37.91;38.90;99308.11;135574;1279;22529;-64
2023/08/15 07:24:32;;;;;;;21.20;7.20;;;;;;;37.96;38.12;99305.13;135557;1280;22528;-61
2023/08/15 07:27:34;;;;;;;20.70;8.40;;;;;;;37.96;37.94;99304.63;135528;1280;22554;-64
2023/08/15 07:30:37;;;;;;;20.80;7.50;;;;;;;38.16;37.89;99306.91;135548;1279;22605;-64
2023/08/15 07:33:39;;;;;;;18.80;7.50;;;;;;;38.47;37.34;99307.16;135528;1280;22544;-63
2023/08/15 07:36:41;;;;;;;18.30;7.50;;;;;;;38.43;36.59;99308.78;135482;1279;22536;-64
2023/08/15 07:39:44;;;;;;;30.70;8.90;;;;;;;38.52;36.36;99309.77;135565;1280;22547;-64
2023/08/15 07:42:49;;;;;;;41.90;9.40;;;;;;;38.60;36.35;99310.70;135564;1280;22605;-60
2023/08/15 07:45:52;;;;;;;32.70;8.10;;;;;;;39.10;35.84;99307.99;135591;1279;22548;-60
2023/08/15 07:48:54;;;;;;;22.60;7.60;;;;;;;39.24;35.15;99309.02;135568;1280;22541;-64
2023/08/15 07:51:56;;;;;;;24.30;7.70;;;;;;;39.15;35.04;99307.30;135591;1280;22556;-63
2023/08/15 07:54:59;;;;;;;19.00;7.30;;;;;;;39.44;34.55;99304.08;135537;1279;22541;-61
2023/08/15 07:58:01;;;;;;;38.60;8.50;;;;;;;39.52;34.08;99301.83;135562;1280;25410;-60
2023/08/15 08:01:04;;;;;;;20.50;7.20;;;;;;;40.11;33.85;99301.99;135426;1258;22527;-59
2023/08/15 08:04:06;;;;;;;21.20;6.70;;;;;;;40.04;33.55;99301.67;135382;1279;22544;-59
2023/08/15 08:07:09;;;;;;;19.00;6.60;;;;;;;40.23;32.93;99306.05;135173;1280;22545;-58
2023/08/15 08:10:11;;;;;;;18.30;6.60;;;;;;;40.18;32.49;99304.90;135124;1279;25279;-58
2023/08/15 08:13:16;;;;;;;24.10;6.50;;;;;;;40.14;32.49;99305.67;136068;1280;23018;-59
2023/08/15 08:16:19;;;;;;;23.70;6.60;;;;;;;40.08;32.53;99301.05;135262;1280;22981;-60
2023/08/15 08:19:21;;;;;;;19.80;5.80;;;;;;;40.31;32.53;99300.54;135176;1258;24310;-58
2023/08/15 08:22:24;;;;;;;19.30;5.70;;;;;;;40.36;30.92;99303.92;134954;1280;23025;-57
2023/08/15 08:25:26;;;;;;;25.80;6.70;;;;;;;40.23;31.15;99297.60;136187;1279;22252;-57
2023/08/15 08:28:29;;;;;;;17.70;6.10;;;;;;;40.21;31.84;99297.09;136648;1274;22218;-57
2023/08/15 08:31:31;;;;;;;18.80;5.70;;;;;;;40.25;31.73;99296.20;135512;1279;22526;-59
2023/08/15 08:34:34;;;;;;;24.20;6.10;;;;;;;40.43;31.41;99294.30;135412;1262;22694;-56
2023/08/15 08:37:36;;;;;;;21.10;5.80;;;;;;;40.71;30.15;99291.68;135466;1279;24245;-58
2023/08/15 08:40:39;;;;;;;17.50;5.60;;;;;;;40.50;30.95;99287.85;135504;1279;22536;-58
2023/08/15 08:43:41;;;;;;;17.80;5.50;;;;;;;40.42;30.52;99288.23;135563;1279;24209;-60
2023/08/15 08:46:44;;;;;;;16.40;5.10;;;;;;;39.84;30.48;99291.25;135566;1280;22529;-60
2023/08/15 08:49:46;;;;;;;14.80;5.10;;;;;;;39.78;30.90;99290.55;135549;1270;22552;-59
2023/08/15 08:52:49;;;;;;;14.90;4.80;;;;;;;39.81;30.28;99289.65;135588;1279;22533;-61
2023/08/15 08:55:52;;;;;;;16.30;4.70;;;;;;;40.18;30.46;99288.14;135444;1279;22540;-61
2023/08/15 08:58:54;;;;;;;17.00;4.70;;;;;;;40.90;29.60;99286.96;135583;1280;22639;-61
2023/08/15 09:01:56;;;;;;;15.60;4.20;;;;;;;41.01;29.94;99287.74;135580;1279;22547;-60
2023/08/15 09:04:59;;;;;;;16.70;4.50;;;;;;;40.76;29.37;99286.25;135548;1266;22561;-60
2023/08/15 09:08:01;;;;;;;12.60;4.00;;;;;;;40.95;28.94;99285.14;135479;1272;25036;-60
2023/08/15 09:11:04;;;;;;;11.20;4.10;;;;;;;41.30;29.04;99289.22;135574;1279;22554;-60
2023/08/15 09:14:06;;;;;;;14.20;4.40;;;;;;;41.09;28.43;99283.24;135549;1261;22646;-61
2023/08/15 09:17:08;;;;;;;14.60;4.30;;;;;;;40.93;27.55;99279.00;135597;1262;22543;-59
2023/08/15 09:20:11;;;;;;;12.20;4.30;;;;;;;41.07;28.08;99283.60;135431;1279;22583;-60
2023/08/15 09:23:13;;;;;;;16.20;4.80;;;;;;;41.40;28.40;99285.85;135559;1279;22531;-59
2023/08/15 09:26:16;;;;;;;19.10;5.20;;;;;;;41.74;28.30;99281.20;135534;1279;23041;-59
2023/08/15 09:29:18;;;;;;;16.70;5.10;;;;;;;41.95;28.23;99278.59;135595;1279;22523;-58
2023/08/15 09:32:21;;;;;;;16.30;4.80;;;;;;;41.79;27.15;99276.58;135566;1279;22533;-59
2023/08/15 09:35:24;;;;;;;14.80;4.50;;;;;;;41.00;27.08;99279.27;135526;1279;22576;-57
2023/08/15 09:38:26;;;;;;;14.90;4.50;;;;;;;41.12;27.93;99272.29;135563;1280;22541;-57
2023/08/15 09:41:29;;;;;;;13.80;5.10;;;;;;;41.54;27.89;99272.52;135560;1279;22544;-60
2023/08/15 09:44:32;;;;;;;17.50;4.80;;;;;;;41.81;27.23;99265.33;135546;1280;22543;-60
2023/08/15 09:47:35;;;;;;;12.60;4.60;;;;;;;42.12;27.90;99267.40;135565;1280;22520;-61
2023/08/15 09:50:37;;;;;;;15.80;5.20;;;;;;;42.30;27.49;99263.75;135583;1280;22520;-57
2023/08/15 09:53:39;;;;;;;13.00;4.30;;;;;;;42.38;26.73;99259.53;135453;1280;22546;-57
2023/08/15 09:56:42;;;;;;;15.50;5.00;;;;;;;42.50;26.45;99259.76;135557;1280;22523;-60
2023/08/15 09:59:45;;;;;;;16.20;4.90;;;;;;;42.24;25.99;99252.73;135419;1279;229786;-60
2023/08/15 10:02:48;;;;;;;12.20;4.80;;;;;;;42.03;26.49;99248.00;135591;1280;22551;-59
2023/08/15 10:05:50;;;;;;;13.90;4.70;;;;;;;42.29;27.02;99253.00;135579;1280;22639;-60
2023/08/15 10:08:53;;;;;;;16.60;4.90;;;;;;;42.44;26.91;99252.11;135579;1271;22546;-61
2023/08/15 10:11:55;;;;;;;15.70;4.80;;;;;;;42.63;25.90;99247.20;135561;1280;23342;-60
2023/08/15 10:14:58;;;;;;;16.50;5.10;;;;;;;42.48;24.97;99243.80;135549;1280;22544;-60
2023/08/15 10:18:00;;;;;;;15.10;4.80;;;;;;;42.41;25.35;99237.48;135575;1262;22543;-60
2023/08/15 10:21:03;;;;;;;17.90;4.90;;;;;;;42.02;26.20;99230.27;135594;1280;22540;-60
2023/08/15 10:24:05;;;;;;;16.10;4.70;;;;;;;42.08;27.04;99230.91;135483;1280;22587;-60
2023/08/15 10:27:08;;;;;;;14.30;4.50;;;;;;;42.51;26.25;99231.46;135601;1280;22526;-58
2023/08/15 10:30:10;;;;;;;12.20;4.30;;;;;;;42.89;25.90;99229.26;135583;1280;22538;-59
2023/08/15 10:33:12;;;;;;;16.20;5.00;;;;;;;42.93;25.76;99225.22;135502;1280;23219;-57
2023/08/15 10:36:15;;;;;;;15.80;4.80;;;;;;;43.15;26.05;99227.32;135487;1279;22538;-60
2023/08/15 10:39:17;;;;;;;13.60;4.50;;;;;;;43.44;25.82;99228.73;135564;1280;22554;-60
2023/08/15 10:42:19;;;;;;;16.40;5.00;;;;;;;43.61;26.10;99225.98;135510;1280;22542;-56
2023/08/15 10:45:22;;;;;;;17.40;4.90;;;;;;;43.62;25.58;99224.05;135540;1280;22487;-59
2023/08/15 10:48:24;;;;;;;15.00;4.50;;;;;;;43.71;25.60;99224.11;135520;1280;22705;-60
2023/08/15 10:51:26;;;;;;;15.40;5.00;;;;;;;43.67;24.73;99226.33;135552;1280;22566;-59
2023/08/15 10:54:29;;;;;;;14.30;4.40;;;;;;;43.60;24.88;99226.63;135588;1280;22580;-57
2023/08/15 10:57:31;;;;;;;14.60;4.80;;;;;;;43.49;25.06;99227.09;135403;1261;22530;-59
2023/08/15 11:00:34;;;;;;;11.90;4.60;;;;;;;43.46;25.52;99231.33;135551;1280;22564;-60
2023/08/15 11:03:36;;;;;;;11.00;4.40;;;;;;;43.77;25.49;99232.13;135556;1280;22629;-59
2023/08/15 11:06:38;;;;;;;11.30;3.90;;;;;;;43.99;24.73;99230.35;135538;1280;25244;-59
2023/08/15 11:09:41;;;;;;;15.60;4.70;;;;;;;44.08;24.27;99231.66;135477;1280;22529;-58
2023/08/15 11:12:43;;;;;;;15.50;4.60;;;;;;;43.70;24.01;99227.38;135518;1280;22614;-59
2023/08/15 11:15:46;;;;;;;14.90;4.60;;;;;;;43.43;23.68;99228.11;135517;1280;25483;-59
2023/08/15 11:18:48;;;;;;;14.70;4.80;;;;;;;43.27;24.27;99229.59;135554;1278;22530;-60
2023/08/15 11:21:51;;;;;;;17.20;4.80;;;;;;;43.48;24.49;99230.66;135420;1256;25466;-57
2023/08/15 11:24:53;;;;;;;13.60;4.90;;;;;;;43.64;24.02;99225.16;135543;1280;25386;-59
2023/08/15 11:27:55;;;;;;;13.30;4.90;;;;;;;43.61;24.23;99221.17;135522;1262;22806;-59
2023/08/15 11:30:58;;;;;;;17.30;4.60;;;;;;;43.98;23.74;99217.91;135515;1259;22563;-58
2023/08/15 11:34:00;;;;;;;13.50;4.70;;;;;;;43.79;23.47;99218.98;135546;1279;22690;-60
2023/08/15 11:37:03;;;;;;;18.90;4.80;;;;;;;43.19;23.24;99217.21;135317;1280;24368;-59
2023/08/15 11:40:05;;;;;;;10.50;4.40;;;;;;;42.53;23.68;99211.27;135527;1280;22557;-60
2023/08/15 11:43:07;;;;;;;15.00;4.60;;;;;;;42.54;23.65;99208.89;135516;1280;22551;-59
2023/08/15 11:46:10;;;;;;;13.50;4.80;;;;;;;42.66;23.64;99208.47;135412;1280;22536;-59
2023/08/15 11:49:12;;;;;;;18.10;4.50;;;;;;;42.96;23.90;99204.48;135510;1280;22530;-59
2023/08/15 11:52:17;;;;;;;12.80;4.50;;;;;;;43.31;24.28;99204.36;135530;1280;22540;-60
2023/08/15 11:55:19;;;;;;;15.70;4.40;;;;;;;43.77;24.32;99204.94;135517;1280;22542;-60
2023/08/15 11:58:21;;;;;;;14.90;4.70;;;;;;;44.08;23.91;99200.60;135508;1279;22531;-60
2023/08/15 12:01:27;;;;;;;12.40;4.50;;;;;;;44.06;22.85;99198.94;135548;1280;24224;-61
2023/08/15 12:04:29;;;;;;;15.40;5.10;;;;;;;43.65;23.47;99194.60;135544;1280;22549;-58
2023/08/15 12:07:32;;;;;;;16.20;4.70;;;;;;;43.85;24.53;99190.05;135518;1280;22536;-56
2023/08/15 12:10:34;;;;;;;16.60;4.90;;;;;;;44.20;23.94;99181.83;135504;1280;25238;-58
2023/08/15 12:13:37;;;;;;;15.40;5.00;;;;;;;44.08;23.53;99180.74;135334;1280;22539;-58
2023/08/15 12:16:40;;;;;;;17.60;5.30;;;;;;;44.34;24.12;99179.36;135524;1280;22529;-59
2023/08/15 12:19:43;;;;;;;13.40;4.10;;;;;;;44.76;23.57;99177.92;135526;1280;22524;-60
2023/08/15 12:22:45;;;;;;;12.10;4.30;;;;;;;44.94;23.40;99178.18;135558;1280;22542;-58
2023/08/15 12:25:48;;;;;;;13.70;4.90;;;;;;;45.07;23.65;99177.05;135554;1280;22556;-60
2023/08/15 12:28:50;;;;;;;17.10;4.80;;;;;;;45.15;23.11;99174.76;135538;1280;25293;-57
2023/08/15 12:31:52;;;;;;;14.60;4.60;;;;;;;45.27;23.13;99169.85;135495;1280;22714;-59
2023/08/15 12:34:55;;;;;;;16.50;4.60;;;;;;;45.50;23.21;99169.27;135472;1280;22580;-59
2023/08/15 12:37:57;;;;;;;15.20;4.50;;;;;;;45.58;22.41;99166.67;135541;1280;25370;-59
2023/08/15 12:41:00;;;;;;;16.80;4.30;;;;;;;45.68;22.73;99162.77;135503;1280;22572;-57
2023/08/15 12:44:02;;;;;;;10.70;4.20;;;;;;;45.55;22.39;99161.77;135505;1280;22527;-59
2023/08/15 12:47:04;;;;;;;12.20;4.00;;;;;;;45.48;21.80;99161.86;135530;1256;24201;-60
2023/08/15 12:50:07;;;;;;;17.10;4.80;;;;;;;45.26;21.14;99159.42;135546;1280;22569;-57
2023/08/15 12:53:09;;;;;;;15.30;4.50;;;;;;;45.28;22.14;99159.14;135580;1280;22553;-57
2023/08/15 12:56:11;;;;;;;14.00;4.30;;;;;;;45.20;20.99;99153.64;135546;1280;22554;-60
2023/08/15 12:59:14;;;;;;;10.70;4.30;;;;;;;44.49;21.40;99152.99;135475;1280;22530;-60
2023/08/15 13:02:16;;;;;;;13.50;4.40;;;;;;;44.75;22.35;99154.34;135497;1280;22546;-59
2023/08/15 13:05:18;;;;;;;10.70;4.30;;;;;;;44.76;21.90;99151.95;135471;1263;22534;-57
2023/08/15 13:08:21;;;;;;;16.70;4.80;;;;;;;44.98;21.24;99146.77;135529;1280;22523;-59
2023/08/15 13:11:24;;;;;;;11.80;4.80;;;;;;;44.91;21.75;99147.83;135537;1280;22541;-58
2023/08/15 13:14:26;;;;;;;15.80;4.80;;;;;;;45.10;21.76;99148.76;135499;1280;22545;-59
2023/08/15 13:17:29;;;;;;;16.00;4.40;;;;;;;45.35;22.07;99144.13;135556;1261;22618;-58
2023/08/15 13:20:31;;;;;;;15.50;4.30;;;;;;;45.29;21.18;99137.71;135516;1261;22530;-57
2023/08/15 13:23:34;;;;;;;13.70;4.50;;;;;;;45.42;21.48;99135.77;135457;1280;22506;-58
2023/08/15 13:26:36;;;;;;;13.30;4.00;;;;;;;45.55;21.04;99133.05;135496;1261;22554;-59
2023/08/15 13:29:39;;;;;;;15.40;4.60;;;;;;;45.55;20.77;99133.59;135508;1280;22546;-59
2023/08/15 13:32:41;;;;;;;13.20;3.80;;;;;;;45.26;20.81;99133.39;135533;1280;25413;-60
2023/08/15 13:35:43;;;;;;;13.00;4.60;;;;;;;45.45;20.48;99135.13;135513;1280;22545;-59
2023/08/15 13:38:46;;;;;;;13.20;4.20;;;;;;;45.72;21.17;99133.28;135538;1261;22542;-57
2023/08/15 13:41:48;;;;;;;14.10;4.10;;;;;;;45.84;21.06;99132.86;135499;1280;22549;-60
2023/08/15 13:44:50;;;;;;;13.40;4.30;;;;;;;46.00;20.86;99130.27;135504;1280;25419;-60
2023/08/15 13:47:53;;;;;;;11.20;3.70;;;;;;;46.16;20.49;99129.49;135547;1262;22690;-60
2023/08/15 13:50:55;;;;;;;13.20;3.80;;;;;;;46.04;19.99;99128.39;135523;1280;22536;-59
2023/08/15 13:53:57;;;;;;;14.00;4.20;;;;;;;45.67;20.20;99126.64;135477;1280;22534;-60